NEOK1: Neosho R at Neosho Rapids, KS

                                SHEF ID:       NEOK1     NEOSHO R AT NEOSHO RAPIDS, KS
STATION TYPE:

STAGE RIV-FLOW BAT-LOAD
ft cfs volt
Ccp-Rev Ccp-Rev Ccp-Rev
(America/Chicago)
04/25 00:00 7.26 3707 12.53
04/25 01:00 7.65 3987 12.52
04/25 02:00 8.02 4258 12.49
04/25 03:00 8.40 4541 12.48
04/25 04:00 8.79 4837 12.46
04/25 05:00 9.19 5145 12.44
04/25 06:00 9.58 5451 12.42
04/25 07:00 9.96 5753 12.40
04/25 08:00 10.32 6043 12.47
04/25 09:00 10.67 6329 13.19
04/25 10:00 10.98 6585 13.19
04/25 11:00 11.25 6810 13.16
04/25 12:00 11.48 7004 13.16
04/25 13:00 11.66 7156 12.99
04/25 14:00 11.81 7284 12.96
04/25 15:00 11.93 7386 12.91
04/25 16:00 12.00 7446 12.97
04/25 17:00 12.04 7481 12.92
04/25 18:00 12.04 7481 12.90
04/25 19:00 12.02 7463 12.87
04/25 20:00 11.98 7429 12.70
04/25 21:00 11.91 7369 12.62
04/25 22:00 11.82 7292 12.59
04/25 23:00 11.73 7216 12.57
Data processed at Sun 26Apr2026 04:36 GMT

NOTICE: If you are parsing this page

Please convert to using our Data API. Starting early 2026 we will be migrating to: https://water.usace.army.mil with modern pages rendered in JavaScript. When this migration completes you will no longer be able to scrape this page! CWMSDataAPI (CDA)

Timeseries IDs (TSIDs)

TSIDs used from left to right in the data table
NEOR.Stage.Inst.1Hour.0.Ccp-Rev
NEOR.Flow.Inst.1Hour.0.Ccp-Rev
NEOR.Volt-Battery Load.Inst.1Hour.0.Ccp-Rev

                            

All information presented herein is the property of the government of the United States of America and may be revised or deleted at any time without prior notice. Dissemination of this information without the expressed written consent of the Public Affairs Office, Tulsa District U.S. Army Corps of Engineers is strictly prohibited. These data are gathered electronically and, as presented, have NOT undergone any form of quality control. These data are NOT guaranteed to be valid or correct.